createdAt,value
2023-04-01T00:01:47.063Z,1.20
2023-04-01T00:04:34.873Z,1.00
2023-04-01T00:07:21.996Z,1.10
2023-04-01T00:10:10.789Z,0.97
2023-04-01T00:12:57.293Z,1.00
2023-04-01T00:15:44.824Z,0.90
2023-04-01T00:18:32.075Z,0.90
2023-04-01T00:21:21.457Z,0.90
2023-04-01T00:24:08.080Z,0.90
2023-04-01T00:26:54.849Z,0.90
2023-04-01T00:29:44.114Z,1.00
2023-04-01T00:32:31.595Z,1.47
2023-04-01T00:35:18.500Z,1.20
2023-04-01T00:38:07.220Z,1.20
2023-04-01T00:41:00.141Z,1.20
2023-04-01T00:43:48.190Z,1.30
2023-04-01T00:46:36.561Z,1.30
2023-04-01T00:49:28.010Z,1.30
2023-04-01T00:52:19.394Z,1.30
2023-04-01T00:55:10.685Z,1.10
2023-04-01T00:57:59.105Z,1.10
2023-04-01T01:00:47.599Z,1.10
2023-04-01T01:03:35.240Z,1.10
2023-04-01T01:06:32.707Z,1.13
2023-04-01T01:09:32.558Z,1.10
2023-04-01T01:12:25.239Z,1.43
2023-04-01T01:15:17.019Z,1.30
2023-04-01T01:18:09.526Z,1.00
2023-04-01T01:21:21.911Z,1.10
2023-04-01T01:24:43.523Z,1.20
2023-04-01T01:27:32.889Z,1.07
2023-04-01T01:30:43.992Z,1.30
2023-04-01T01:33:47.479Z,1.17
2023-04-01T01:36:36.655Z,1.20
2023-04-01T01:39:28.910Z,1.23
2023-04-01T01:42:18.797Z,1.30
2023-04-01T01:45:07.982Z,1.10
2023-04-01T01:47:55.399Z,0.93
2023-04-01T01:50:43.376Z,0.73
2023-04-01T01:53:31.325Z,0.90
2023-04-01T01:56:19.630Z,0.97
2023-04-01T01:59:11.352Z,0.80
2023-04-01T02:01:59.964Z,0.90
2023-04-01T02:04:49.159Z,0.90
2023-04-01T02:07:38.615Z,1.07
2023-04-01T02:10:29.073Z,0.60
2023-04-01T02:13:19.773Z,0.63
2023-04-01T02:16:15.381Z,0.90
2023-04-01T02:19:03.662Z,0.87
2023-04-01T02:21:52.762Z,1.10
2023-04-01T02:24:41.875Z,1.00
2023-04-01T02:27:30.719Z,0.73
2023-04-01T02:30:19.018Z,0.80
2023-04-01T02:33:07.424Z,0.77
2023-04-01T02:35:54.162Z,0.60
2023-04-01T02:38:41.152Z,0.70
2023-04-01T02:41:27.738Z,0.93
2023-04-01T02:44:17.229Z,0.80
2023-04-01T02:47:04.548Z,1.03
2023-04-01T02:49:51.669Z,1.07
2023-04-01T02:52:38.247Z,0.60
2023-04-01T02:55:24.884Z,0.57
2023-04-01T02:58:11.579Z,1.70
2023-04-01T03:00:59.691Z,1.20
2023-04-01T03:03:46.552Z,0.90
2023-04-01T03:06:32.941Z,0.90
2023-04-01T03:09:19.483Z,0.70
2023-04-01T03:12:05.950Z,1.20
2023-04-01T03:14:52.528Z,1.00
2023-04-01T03:17:40.502Z,0.50
2023-04-01T03:20:27.236Z,0.60
2023-04-01T03:23:14.205Z,0.40
2023-04-01T03:26:00.838Z,0.50
2023-04-01T03:28:47.250Z,0.60
2023-04-01T03:31:33.938Z,0.50
2023-04-01T03:34:21.901Z,0.70
2023-04-01T03:37:08.242Z,0.40
2023-04-01T03:39:54.877Z,0.60
2023-04-01T03:42:41.707Z,0.63
2023-04-01T03:45:28.114Z,0.40
2023-04-01T03:48:14.543Z,0.60
2023-04-01T03:51:02.461Z,0.60
2023-04-01T03:53:49.149Z,0.67
2023-04-01T03:56:35.781Z,0.80
2023-04-01T03:59:22.713Z,0.40
2023-04-01T04:02:09.345Z,0.40
2023-04-01T04:04:56.104Z,0.43
2023-04-01T04:07:43.886Z,0.40
2023-04-01T04:10:30.651Z,0.60
2023-04-01T04:13:17.015Z,0.43
2023-04-01T04:16:03.724Z,0.60
2023-04-01T04:18:51.980Z,0.70
2023-04-01T04:21:38.510Z,0.50
2023-04-01T04:24:26.293Z,0.60
2023-04-01T04:27:12.996Z,0.30
2023-04-01T04:29:59.334Z,0.30
2023-04-01T04:32:45.814Z,0.60
2023-04-01T04:35:32.616Z,0.70
2023-04-01T04:38:19.676Z,0.70
2023-04-01T04:41:11.302Z,0.50
2023-04-01T04:43:59.587Z,0.43
2023-04-01T04:46:46.270Z,0.60
2023-04-01T04:49:33.539Z,0.50
2023-04-01T04:52:19.880Z,0.40
2023-04-01T04:55:07.334Z,0.50
2023-04-01T04:57:55.275Z,0.60
2023-04-01T05:00:42.022Z,0.50
2023-04-01T05:03:28.785Z,0.63
2023-04-01T05:06:17.063Z,0.60
2023-04-01T05:09:03.727Z,0.50
2023-04-01T05:11:50.047Z,0.53
2023-04-01T05:14:37.951Z,0.43
2023-04-01T05:17:24.404Z,0.40
2023-04-01T05:20:13.746Z,0.70
2023-04-01T05:23:01.000Z,0.37
2023-04-01T05:25:47.881Z,0.50
2023-04-01T05:28:34.456Z,1.10
2023-04-01T05:31:22.323Z,0.50
2023-04-01T05:34:09.230Z,0.50
2023-04-01T05:36:55.642Z,0.53
2023-04-01T05:39:42.037Z,0.50
2023-04-01T05:42:28.403Z,0.50
2023-04-01T05:45:16.473Z,0.70
2023-04-01T05:48:04.573Z,0.63
2023-04-01T05:50:51.267Z,0.60
2023-04-01T05:53:37.871Z,0.40
2023-04-01T05:56:24.186Z,0.50
2023-04-01T05:59:12.733Z,0.53
2023-04-01T06:02:00.018Z,0.30
2023-04-01T06:04:48.411Z,0.60
2023-04-01T06:07:35.304Z,0.70
2023-04-01T06:10:24.129Z,0.40
2023-04-01T06:13:19.920Z,0.40
2023-04-01T06:16:12.769Z,0.50
2023-04-01T06:19:13.020Z,0.57
2023-04-01T06:22:36.560Z,0.50
2023-04-01T06:25:49.933Z,0.73
2023-04-01T06:28:49.817Z,0.57
2023-04-01T06:31:47.833Z,0.60
2023-04-01T06:35:00.341Z,0.50
2023-04-01T06:38:21.030Z,0.50
2023-04-01T06:41:27.736Z,0.60
2023-04-01T06:44:21.463Z,1.10
2023-04-01T06:47:27.610Z,0.47
2023-04-01T06:50:21.591Z,0.60
2023-04-01T06:53:20.088Z,0.60
2023-04-01T06:56:11.158Z,0.60
2023-04-01T06:59:01.035Z,0.30
2023-04-01T07:01:52.289Z,0.40
2023-04-01T07:04:40.785Z,0.70
2023-04-01T07:07:35.338Z,0.60
2023-04-01T07:10:33.087Z,0.33
2023-04-01T07:13:25.212Z,0.43
2023-04-01T07:16:17.720Z,0.37
2023-04-01T07:19:08.195Z,0.40
2023-04-01T07:21:58.986Z,0.70
2023-04-01T07:24:47.587Z,0.50
2023-04-01T07:27:35.887Z,0.43
2023-04-01T07:30:25.745Z,0.40
2023-04-01T07:33:17.417Z,0.60
2023-04-01T07:36:12.099Z,0.30
2023-04-01T07:39:07.702Z,0.50
2023-04-01T07:42:01.673Z,0.40
2023-04-01T07:45:01.310Z,0.50
2023-04-01T07:48:06.649Z,0.50
2023-04-01T07:50:58.927Z,0.60
2023-04-01T07:53:51.344Z,0.63
2023-04-01T07:56:45.480Z,0.47
2023-04-01T07:59:40.373Z,0.70
2023-04-01T08:02:36.886Z,0.70
2023-04-01T08:05:29.309Z,0.40
2023-04-01T08:08:21.754Z,1.13
2023-04-01T08:11:18.056Z,1.10
2023-04-01T08:14:15.607Z,0.80
2023-04-01T08:17:07.383Z,0.60
2023-04-01T08:20:16.740Z,0.60
2023-04-01T08:23:09.437Z,0.37
2023-04-01T08:26:00.192Z,0.60
2023-04-01T08:28:53.188Z,0.50
2023-04-01T08:31:47.716Z,0.60
2023-04-01T08:34:38.760Z,0.60
2023-04-01T08:37:32.374Z,1.00
2023-04-01T08:40:41.392Z,0.60
2023-04-01T08:43:54.152Z,0.57
2023-04-01T08:47:33.037Z,0.50
2023-04-01T08:50:53.096Z,0.50
2023-04-01T08:53:51.172Z,0.73
2023-04-01T08:56:44.574Z,0.50
2023-04-01T08:59:49.682Z,0.60
2023-04-01T09:02:57.686Z,0.60
2023-04-01T09:06:10.959Z,0.60
2023-04-01T09:09:37.765Z,0.50
2023-04-01T09:13:04.813Z,0.67
2023-04-01T09:16:21.181Z,0.67
2023-04-01T09:19:23.839Z,0.50
2023-04-01T09:22:27.138Z,0.40
2023-04-01T09:25:40.669Z,0.53
2023-04-01T09:28:35.484Z,0.90
2023-04-01T09:31:33.866Z,0.60
2023-04-01T09:34:46.871Z,0.57
2023-04-01T09:37:38.238Z,0.60
2023-04-01T09:40:38.475Z,0.60
2023-04-01T09:43:30.581Z,0.70
2023-04-01T09:46:25.973Z,0.50
2023-04-01T09:49:40.895Z,0.50
2023-04-01T09:52:39.439Z,0.57
2023-04-01T09:56:09.955Z,0.60
2023-04-01T09:59:39.760Z,0.50
2023-04-01T10:03:07.790Z,0.30
2023-04-01T10:06:33.492Z,0.53
2023-04-01T10:09:47.096Z,0.57
2023-04-01T10:12:52.121Z,0.50
2023-04-01T10:16:13.590Z,0.80
2023-04-01T10:19:44.533Z,0.60
2023-04-01T10:23:00.878Z,0.67
2023-04-01T10:26:09.959Z,0.67
2023-04-01T10:29:18.756Z,0.77
2023-04-01T10:32:38.308Z,0.70
2023-04-01T10:36:09.828Z,0.80
2023-04-01T10:39:31.075Z,0.70
2023-04-01T10:42:59.989Z,0.87
2023-04-01T10:46:22.394Z,0.93
2023-04-01T10:49:54.994Z,1.00
2023-04-01T10:53:22.072Z,1.10
2023-04-01T10:56:45.819Z,0.90
2023-04-01T11:00:03.550Z,0.80
2023-04-01T11:03:53.523Z,0.80
2023-04-01T11:07:12.718Z,1.00
2023-04-01T11:10:44.090Z,1.00
2023-04-01T11:14:03.295Z,1.00
2023-04-01T11:17:20.869Z,1.10
2023-04-01T11:20:45.203Z,1.00
2023-04-01T11:24:15.705Z,1.50
2023-04-01T11:27:18.380Z,1.17
2023-04-01T11:30:18.347Z,1.10
2023-04-01T11:33:13.644Z,1.20
2023-04-01T11:36:11.407Z,1.00
2023-04-01T11:39:22.666Z,0.90
2023-04-01T11:42:22.696Z,0.97
2023-04-01T11:45:28.728Z,0.80
2023-04-01T11:48:42.315Z,0.70
2023-04-01T11:51:48.034Z,0.80
2023-04-01T11:54:52.354Z,0.93
2023-04-01T11:57:50.893Z,0.90
2023-04-01T12:00:55.978Z,0.80
2023-04-01T12:04:29.637Z,0.60
2023-04-01T12:07:26.916Z,0.40
2023-04-01T12:10:20.440Z,0.30
2023-04-01T12:13:16.652Z,0.30
2023-04-01T12:16:28.436Z,0.40
2023-04-01T12:19:25.543Z,0.30
2023-04-01T12:22:33.748Z,0.30
2023-04-01T12:25:30.009Z,0.50
2023-04-01T12:28:25.639Z,0.40
2023-04-01T12:31:25.936Z,0.30
2023-04-01T12:34:36.484Z,0.43
2023-04-01T12:37:34.432Z,0.30
2023-04-01T12:40:33.293Z,0.30
2023-04-01T12:44:03.422Z,0.50
2023-04-01T12:47:17.136Z,0.57
2023-04-01T12:50:25.829Z,0.50
2023-04-01T12:53:35.764Z,0.33
2023-04-01T12:56:34.802Z,0.60
2023-04-01T12:59:52.240Z,0.90
2023-04-01T13:02:53.740Z,0.50
2023-04-01T13:05:59.734Z,0.60
2023-04-01T13:08:54.641Z,0.60
2023-04-01T13:11:54.961Z,0.57
2023-04-01T13:15:11.696Z,0.70
2023-04-01T13:18:12.892Z,1.10
2023-04-01T13:21:08.150Z,0.90
2023-04-01T13:24:05.048Z,0.93
2023-04-01T13:26:59.630Z,0.93
2023-04-01T13:29:53.586Z,0.97
2023-04-01T13:32:46.655Z,0.80
2023-04-01T13:35:41.024Z,0.80
2023-04-01T13:38:56.516Z,0.90
2023-04-01T13:42:06.506Z,0.70
2023-04-01T13:44:58.540Z,0.80
2023-04-01T13:48:26.682Z,0.80
2023-04-01T13:51:27.246Z,0.70
2023-04-01T13:54:47.123Z,0.67
2023-04-01T13:57:58.754Z,0.63
2023-04-01T14:00:57.557Z,0.57
2023-04-01T14:04:14.697Z,0.60
2023-04-01T14:07:13.692Z,0.80
2023-04-01T14:10:10.163Z,0.77
2023-04-01T14:13:06.558Z,0.80
2023-04-01T14:16:07.283Z,1.10
2023-04-01T14:19:10.517Z,1.20
2023-04-01T14:22:04.342Z,0.90
2023-04-01T14:25:10.648Z,1.17
2023-04-01T14:28:08.773Z,1.60
2023-04-01T14:31:18.766Z,1.50
2023-04-01T14:34:17.706Z,0.90
2023-04-01T14:37:15.273Z,0.77
2023-04-01T14:40:24.095Z,0.70
2023-04-01T14:43:50.405Z,0.80
2023-04-01T14:47:27.104Z,0.70
2023-04-01T14:50:17.704Z,0.60
2023-04-01T14:53:15.421Z,0.50
2023-04-01T14:56:04.047Z,0.57
2023-04-01T14:58:59.104Z,0.77
2023-04-01T15:01:52.419Z,0.90
2023-04-01T15:05:02.092Z,0.57
2023-04-01T15:08:14.793Z,0.47
2023-04-01T15:11:27.893Z,0.47
2023-04-01T15:14:41.970Z,0.70
2023-04-01T15:17:50.778Z,0.70
2023-04-01T15:20:54.343Z,0.90
2023-04-01T15:23:54.101Z,0.80
2023-04-01T15:26:56.350Z,0.90
2023-04-01T15:30:17.019Z,0.90
2023-04-01T15:33:21.697Z,0.90
2023-04-01T15:36:22.867Z,1.30
2023-04-01T15:39:17.981Z,1.30
2023-04-01T15:42:18.512Z,0.90
2023-04-01T15:45:16.224Z,0.70
2023-04-01T15:48:08.196Z,0.83
2023-04-01T15:51:08.021Z,0.73
2023-04-01T15:54:17.098Z,0.60
2023-04-01T15:57:15.897Z,0.60
2023-04-01T16:00:19.494Z,0.70
2023-04-01T16:03:35.560Z,0.80
2023-04-01T16:06:50.501Z,0.63
2023-04-01T16:09:46.689Z,0.70
2023-04-01T16:12:49.158Z,0.70
2023-04-01T16:15:46.518Z,0.60
2023-04-01T16:18:50.872Z,0.70
2023-04-01T16:21:43.974Z,0.80
2023-04-01T16:24:37.303Z,0.60
2023-04-01T16:27:31.088Z,0.70
2023-04-01T16:30:35.526Z,0.80
2023-04-01T16:33:30.204Z,0.90
2023-04-01T16:36:28.725Z,0.70
2023-04-01T16:39:29.291Z,0.70
2023-04-01T16:42:37.820Z,0.50
2023-04-01T16:45:35.064Z,0.70
2023-04-01T16:48:30.293Z,0.60
2023-04-01T16:51:19.035Z,0.60
2023-04-01T16:54:12.762Z,0.80
2023-04-01T16:57:06.542Z,0.80
2023-04-01T17:00:01.812Z,0.67
2023-04-01T17:02:54.665Z,1.13
2023-04-01T17:05:56.765Z,1.13
2023-04-01T17:09:03.643Z,0.70
2023-04-01T17:11:57.758Z,0.50
2023-04-01T17:14:53.770Z,0.50
2023-04-01T17:17:49.121Z,0.70
2023-04-01T17:20:45.502Z,0.70
2023-04-01T17:23:36.360Z,0.87
2023-04-01T17:26:33.833Z,0.60
2023-04-01T17:29:27.001Z,0.60
2023-04-01T17:32:21.816Z,0.50
2023-04-01T17:35:15.463Z,0.40
2023-04-01T17:38:15.410Z,0.40
2023-04-01T17:41:09.887Z,0.60
2023-04-01T17:44:06.252Z,0.50
2023-04-01T17:47:18.606Z,0.50
2023-04-01T17:50:21.751Z,0.50
2023-04-01T17:53:25.354Z,0.43
2023-04-01T17:56:21.389Z,0.67
2023-04-01T17:59:18.042Z,0.50
2023-04-01T18:02:14.046Z,0.70
2023-04-01T18:05:22.444Z,0.70
2023-04-01T18:08:18.942Z,0.60
2023-04-01T18:11:15.214Z,0.90
2023-04-01T18:14:21.625Z,0.70
2023-04-01T18:17:21.167Z,0.63
2023-04-01T18:20:35.714Z,0.73
2023-04-01T18:23:30.761Z,0.60
2023-04-01T18:26:25.035Z,0.70
2023-04-01T18:29:20.301Z,0.80
2023-04-01T18:32:18.121Z,0.70
2023-04-01T18:35:19.263Z,0.60
2023-04-01T18:38:14.290Z,0.70
2023-04-01T18:41:14.750Z,0.60
2023-04-01T18:44:14.997Z,0.90
2023-04-01T18:47:10.355Z,0.63
2023-04-01T18:50:03.973Z,0.60
2023-04-01T18:52:54.035Z,0.60
2023-04-01T18:55:45.536Z,0.60
2023-04-01T18:58:37.256Z,0.50
2023-04-01T19:01:29.224Z,0.73
2023-04-01T19:04:25.542Z,0.80
2023-04-01T19:07:45.409Z,1.10
2023-04-01T19:10:41.715Z,0.90
2023-04-01T19:13:36.512Z,0.80
2023-04-01T19:16:34.010Z,0.97
2023-04-01T19:19:43.807Z,0.90
2023-04-01T19:22:54.716Z,1.00
2023-04-01T19:25:45.057Z,1.00
2023-04-01T19:28:45.918Z,0.80
2023-04-01T19:31:47.211Z,0.80
2023-04-01T19:34:50.120Z,0.70
2023-04-01T19:37:42.641Z,0.87
2023-04-01T19:40:41.987Z,0.87
2023-04-01T19:43:45.665Z,0.90
2023-04-01T19:46:39.042Z,1.07
2023-04-01T19:49:49.947Z,1.00
2023-04-01T19:52:39.650Z,1.10
2023-04-01T19:55:37.360Z,1.00
2023-04-01T19:58:30.606Z,0.77
2023-04-01T20:01:29.623Z,0.97
2023-04-01T20:04:31.963Z,0.90
2023-04-01T20:07:24.421Z,0.83
2023-04-01T20:10:16.652Z,0.80
2023-04-01T20:13:15.298Z,0.83
2023-04-01T20:16:04.896Z,0.70
2023-04-01T20:18:56.384Z,0.90
2023-04-01T20:21:48.732Z,0.80
2023-04-01T20:24:39.627Z,0.97
2023-04-01T20:27:28.881Z,0.77
2023-04-01T20:30:53.413Z,0.83
2023-04-01T20:33:59.906Z,0.93
2023-04-01T20:37:00.634Z,1.20
2023-04-01T20:40:03.375Z,1.10
2023-04-01T20:43:09.672Z,1.40
2023-04-01T20:46:00.531Z,1.20
2023-04-01T20:49:26.154Z,1.40
2023-04-01T20:52:42.022Z,1.23
2023-04-01T20:56:03.761Z,1.40
2023-04-01T20:58:58.429Z,1.60
2023-04-01T21:01:52.707Z,1.27
2023-04-01T21:05:05.119Z,1.83
2023-04-01T21:07:57.853Z,2.10
2023-04-01T21:10:51.079Z,1.80
2023-04-01T21:13:56.669Z,1.80
2023-04-01T21:16:49.627Z,2.10
2023-04-01T21:19:58.732Z,2.20
2023-04-01T21:23:07.079Z,1.90
2023-04-01T21:26:04.222Z,1.80
2023-04-01T21:29:12.089Z,1.50
2023-04-01T21:32:15.514Z,1.67
2023-04-01T21:35:10.953Z,1.40
2023-04-01T21:38:13.597Z,1.77
2023-04-01T21:41:13.392Z,1.50
2023-04-01T21:44:20.505Z,1.70
2023-04-01T21:47:36.483Z,1.57
2023-04-01T21:50:44.106Z,1.60
2023-04-01T21:54:04.572Z,1.60
2023-04-01T21:57:21.594Z,1.90
2023-04-01T22:00:26.750Z,1.97
2023-04-01T22:03:53.875Z,1.90
2023-04-01T22:06:46.370Z,1.87
2023-04-01T22:09:36.968Z,1.90
2023-04-01T22:12:32.623Z,2.07
2023-04-01T22:15:26.505Z,2.30
2023-04-01T22:18:20.497Z,1.97
2023-04-01T22:21:14.927Z,1.93
2023-04-01T22:24:10.177Z,1.90
2023-04-01T22:27:02.493Z,2.00
2023-04-01T22:30:01.463Z,1.60
2023-04-01T22:32:51.050Z,2.03
2023-04-01T22:35:46.638Z,2.03
2023-04-01T22:38:48.367Z,1.90
2023-04-01T22:41:46.616Z,1.93
2023-04-01T22:44:50.343Z,1.90
2023-04-01T22:47:52.478Z,1.90
2023-04-01T22:50:45.137Z,1.73
2023-04-01T22:53:43.560Z,1.90
2023-04-01T22:56:34.836Z,1.50
2023-04-01T22:59:27.914Z,1.83
2023-04-01T23:02:19.255Z,1.90
2023-04-01T23:05:12.372Z,1.83
2023-04-01T23:08:05.339Z,1.90
2023-04-01T23:10:55.242Z,2.10
2023-04-01T23:13:46.629Z,1.90
2023-04-01T23:16:39.118Z,1.57
2023-04-01T23:19:33.125Z,1.70
2023-04-01T23:22:28.824Z,1.60
2023-04-01T23:25:25.732Z,1.90
2023-04-01T23:28:34.400Z,1.80
2023-04-01T23:31:36.916Z,2.00
2023-04-01T23:34:30.792Z,1.93
2023-04-01T23:37:19.713Z,2.27
2023-04-01T23:40:15.607Z,2.00
2023-04-01T23:43:02.286Z,2.33
2023-04-01T23:45:49.087Z,2.03
2023-04-01T23:48:40.780Z,2.23
2023-04-01T23:51:30.752Z,2.43
2023-04-01T23:54:22.775Z,2.20
2023-04-01T23:57:16.181Z,2.57
